Main page
Satellite images 15-day forecastsClimateMarine weather Cyclones Lightning AirportsFAQ Newsletter About
Weather : Europe Africa North America South America Asia Australia-Oceania Others
Languages Contact

Belgrade, Serbia

Nikola Tesla

latitude: 44-49N, longitude: 020-17E, elevation: 96 m


METAR: LYBE 191530Z 22005KT 7000 NSC 10/05 Q1019 NOSIG
TAF: LYBE 191100Z 1912/2012 20005KT CAVOK TX12/1912Z TN02/2006Z BECMG 1919/1922 2000 BR TEMPO 1923/2004 0500 FG BECMG 2009/2011 7000 NSW

Time: 16:44 (15:44 UTC)

Current weather observation

The report was made 14 minutes ago, at 15:30 UTC
Wind 5 kt from the Southwest
Temperature 10°C
Humidity 71%
Pressure 1019 hPa
Visibility: 7000 m

Change units

Forecast

The report was made 4 hours and 44 minutes ago, at 11:00 UTC
Forecast valid from 19 at 12 UTC to 20 at 12 UTC
Wind 5 kt from the South/Southwest
Visibility 10 km or more
no clouds below 1500 m and no cumulonimbus
Becoming
from 19 at 19 UTC to 19 at 22 UTC
Visibility: 2000 m
mist
Temporary
from 19 at 23 UTC to 20 at 04 UTC
Visibility: 0500 m
fog
Becoming
from 20 at 09 UTC to 20 at 11 UTC
Visibility: 7000 m
The information on this site is subject to a disclaimer
Weather : Europe Africa North America South America Asia Australia-Oceania Others
Satellite images 15-day forecastsClimateMarine weather Cyclones Lightning AirportsFAQ Languages Contact Newsletter About